sensor_id;sensor_type;location;lat;lon;timestamp;P1;durP1;ratioP1;P2;durP2;ratioP2
50932;SDS011;36921;49.006;9.292;2023-04-26T00:01:04;20.52;;;8.10;;
50932;SDS011;36921;49.006;9.292;2023-04-26T00:03:29;19.77;;;7.10;;
50932;SDS011;36921;49.006;9.292;2023-04-26T00:05:55;16.77;;;7.25;;
50932;SDS011;36921;49.006;9.292;2023-04-26T00:08:20;13.15;;;7.10;;
50932;SDS011;36921;49.006;9.292;2023-04-26T00:10:45;14.73;;;6.90;;
50932;SDS011;36921;49.006;9.292;2023-04-26T00:13:11;16.92;;;7.10;;
50932;SDS011;36921;49.006;9.292;2023-04-26T00:15:36;14.15;;;7.75;;
50932;SDS011;36921;49.006;9.292;2023-04-26T00:18:01;15.88;;;8.20;;
50932;SDS011;36921;49.006;9.292;2023-04-26T00:20:27;15.63;;;7.95;;
50932;SDS011;36921;49.006;9.292;2023-04-26T00:22:53;23.08;;;8.95;;
50932;SDS011;36921;49.006;9.292;2023-04-26T00:25:18;20.17;;;9.95;;
50932;SDS011;36921;49.006;9.292;2023-04-26T00:27:43;17.35;;;8.73;;
50932;SDS011;36921;49.006;9.292;2023-04-26T00:30:09;18.50;;;8.35;;
50932;SDS011;36921;49.006;9.292;2023-04-26T00:32:35;18.52;;;7.70;;
50932;SDS011;36921;49.006;9.292;2023-04-26T00:35:02;19.80;;;8.40;;
50932;SDS011;36921;49.006;9.292;2023-04-26T00:37:27;16.92;;;7.82;;
50932;SDS011;36921;49.006;9.292;2023-04-26T00:39:53;19.33;;;7.25;;
50932;SDS011;36921;49.006;9.292;2023-04-26T00:42:18;16.90;;;7.70;;
50932;SDS011;36921;49.006;9.292;2023-04-26T00:44:43;14.05;;;6.80;;
50932;SDS011;36921;49.006;9.292;2023-04-26T00:47:09;17.83;;;6.97;;
50932;SDS011;36921;49.006;9.292;2023-04-26T00:49:34;13.13;;;6.07;;
50932;SDS011;36921;49.006;9.292;2023-04-26T00:52:00;12.98;;;6.90;;
50932;SDS011;36921;49.006;9.292;2023-04-26T00:54:26;18.98;;;7.80;;
50932;SDS011;36921;49.006;9.292;2023-04-26T00:56:52;16.75;;;7.72;;
50932;SDS011;36921;49.006;9.292;2023-04-26T00:59:19;17.38;;;6.72;;
50932;SDS011;36921;49.006;9.292;2023-04-26T01:01:45;15.07;;;7.63;;
50932;SDS011;36921;49.006;9.292;2023-04-26T01:04:11;18.38;;;7.78;;
50932;SDS011;36921;49.006;9.292;2023-04-26T01:06:38;14.13;;;7.55;;
50932;SDS011;36921;49.006;9.292;2023-04-26T01:09:05;17.35;;;7.38;;
50932;SDS011;36921;49.006;9.292;2023-04-26T01:11:33;16.63;;;7.60;;
50932;SDS011;36921;49.006;9.292;2023-04-26T01:13:59;19.90;;;7.20;;
50932;SDS011;36921;49.006;9.292;2023-04-26T01:16:26;13.38;;;6.95;;
50932;SDS011;36921;49.006;9.292;2023-04-26T01:18:52;12.13;;;7.13;;
50932;SDS011;36921;49.006;9.292;2023-04-26T01:21:21;14.63;;;7.00;;
50932;SDS011;36921;49.006;9.292;2023-04-26T01:26:13;11.23;;;6.95;;
50932;SDS011;36921;49.006;9.292;2023-04-26T01:28:39;15.52;;;6.88;;
50932;SDS011;36921;49.006;9.292;2023-04-26T01:31:05;16.83;;;7.68;;
50932;SDS011;36921;49.006;9.292;2023-04-26T01:33:30;15.60;;;7.50;;
50932;SDS011;36921;49.006;9.292;2023-04-26T01:35:56;20.58;;;8.70;;
50932;SDS011;36921;49.006;9.292;2023-04-26T01:38:21;15.55;;;7.03;;
50932;SDS011;36921;49.006;9.292;2023-04-26T01:40:46;15.57;;;7.25;;
50932;SDS011;36921;49.006;9.292;2023-04-26T01:43:12;17.88;;;7.43;;
50932;SDS011;36921;49.006;9.292;2023-04-26T01:45:37;15.77;;;6.93;;
50932;SDS011;36921;49.006;9.292;2023-04-26T01:48:02;18.42;;;7.82;;
50932;SDS011;36921;49.006;9.292;2023-04-26T01:50:28;15.80;;;7.57;;
50932;SDS011;36921;49.006;9.292;2023-04-26T01:52:53;19.13;;;7.50;;
50932;SDS011;36921;49.006;9.292;2023-04-26T01:55:18;17.80;;;8.02;;
50932;SDS011;36921;49.006;9.292;2023-04-26T01:57:44;13.10;;;7.40;;
50932;SDS011;36921;49.006;9.292;2023-04-26T02:00:09;22.42;;;8.00;;
50932;SDS011;36921;49.006;9.292;2023-04-26T02:02:35;15.35;;;8.23;;
50932;SDS011;36921;49.006;9.292;2023-04-26T02:05:00;17.83;;;7.75;;
50932;SDS011;36921;49.006;9.292;2023-04-26T02:07:26;18.52;;;7.82;;
50932;SDS011;36921;49.006;9.292;2023-04-26T02:09:51;17.63;;;8.38;;
50932;SDS011;36921;49.006;9.292;2023-04-26T02:12:16;16.15;;;7.90;;
50932;SDS011;36921;49.006;9.292;2023-04-26T02:14:41;15.88;;;8.27;;
50932;SDS011;36921;49.006;9.292;2023-04-26T02:17:07;14.93;;;7.40;;
50932;SDS011;36921;49.006;9.292;2023-04-26T02:19:32;22.42;;;7.80;;
50932;SDS011;36921;49.006;9.292;2023-04-26T02:21:58;22.73;;;8.70;;
50932;SDS011;36921;49.006;9.292;2023-04-26T02:24:23;19.23;;;7.88;;
50932;SDS011;36921;49.006;9.292;2023-04-26T02:26:49;25.40;;;7.88;;
50932;SDS011;36921;49.006;9.292;2023-04-26T02:29:15;15.35;;;7.43;;
50932;SDS011;36921;49.006;9.292;2023-04-26T02:31:41;24.23;;;7.18;;
50932;SDS011;36921;49.006;9.292;2023-04-26T02:34:06;20.63;;;7.63;;
50932;SDS011;36921;49.006;9.292;2023-04-26T02:36:31;14.32;;;7.10;;
50932;SDS011;36921;49.006;9.292;2023-04-26T02:38:57;14.45;;;6.47;;
50932;SDS011;36921;49.006;9.292;2023-04-26T02:41:23;13.98;;;6.80;;
50932;SDS011;36921;49.006;9.292;2023-04-26T02:43:48;19.80;;;7.00;;
50932;SDS011;36921;49.006;9.292;2023-04-26T02:46:14;15.27;;;6.65;;
50932;SDS011;36921;49.006;9.292;2023-04-26T02:48:39;18.63;;;6.43;;
50932;SDS011;36921;49.006;9.292;2023-04-26T02:51:04;16.60;;;7.03;;
50932;SDS011;36921;49.006;9.292;2023-04-26T02:53:30;17.75;;;6.68;;
50932;SDS011;36921;49.006;9.292;2023-04-26T02:55:55;12.85;;;6.30;;
50932;SDS011;36921;49.006;9.292;2023-04-26T02:58:20;14.90;;;6.53;;
50932;SDS011;36921;49.006;9.292;2023-04-26T03:00:46;16.10;;;6.40;;
50932;SDS011;36921;49.006;9.292;2023-04-26T03:03:12;13.77;;;7.05;;
50932;SDS011;36921;49.006;9.292;2023-04-26T03:05:39;10.85;;;5.70;;
50932;SDS011;36921;49.006;9.292;2023-04-26T03:08:05;15.32;;;6.82;;
50932;SDS011;36921;49.006;9.292;2023-04-26T03:10:31;13.55;;;6.85;;
50932;SDS011;36921;49.006;9.292;2023-04-26T03:12:56;14.38;;;6.90;;
50932;SDS011;36921;49.006;9.292;2023-04-26T03:15:22;14.63;;;5.97;;
50932;SDS011;36921;49.006;9.292;2023-04-26T03:17:47;15.98;;;7.10;;
50932;SDS011;36921;49.006;9.292;2023-04-26T03:20:13;20.80;;;7.80;;
50932;SDS011;36921;49.006;9.292;2023-04-26T03:22:39;17.20;;;7.47;;
50932;SDS011;36921;49.006;9.292;2023-04-26T03:25:05;19.92;;;7.10;;
50932;SDS011;36921;49.006;9.292;2023-04-26T03:30:17;20.48;;;6.97;;
50932;SDS011;36921;49.006;9.292;2023-04-26T03:32:42;19.95;;;7.05;;
50932;SDS011;36921;49.006;9.292;2023-04-26T03:35:08;14.80;;;7.00;;
50932;SDS011;36921;49.006;9.292;2023-04-26T03:37:43;29.95;;;8.10;;
50932;SDS011;36921;49.006;9.292;2023-04-26T03:40:09;13.20;;;6.43;;
50932;SDS011;36921;49.006;9.292;2023-04-26T03:42:35;17.17;;;7.20;;
50932;SDS011;36921;49.006;9.292;2023-04-26T03:45:01;15.48;;;6.75;;
50932;SDS011;36921;49.006;9.292;2023-04-26T03:47:27;16.73;;;7.68;;
50932;SDS011;36921;49.006;9.292;2023-04-26T03:49:53;21.00;;;7.13;;
50932;SDS011;36921;49.006;9.292;2023-04-26T03:52:18;18.98;;;7.43;;
50932;SDS011;36921;49.006;9.292;2023-04-26T03:54:44;17.50;;;8.20;;
50932;SDS011;36921;49.006;9.292;2023-04-26T03:57:09;19.33;;;7.70;;
50932;SDS011;36921;49.006;9.292;2023-04-26T03:59:35;21.83;;;8.55;;
50932;SDS011;36921;49.006;9.292;2023-04-26T04:02:00;17.88;;;7.18;;
50932;SDS011;36921;49.006;9.292;2023-04-26T04:04:25;17.98;;;7.65;;
50932;SDS011;36921;49.006;9.292;2023-04-26T04:06:51;16.98;;;8.60;;
50932;SDS011;36921;49.006;9.292;2023-04-26T04:09:16;17.55;;;7.57;;
50932;SDS011;36921;49.006;9.292;2023-04-26T04:11:42;18.60;;;7.90;;
50932;SDS011;36921;49.006;9.292;2023-04-26T04:14:07;22.65;;;8.18;;
50932;SDS011;36921;49.006;9.292;2023-04-26T04:16:32;25.10;;;7.78;;
50932;SDS011;36921;49.006;9.292;2023-04-26T04:18:57;19.00;;;8.63;;
50932;SDS011;36921;49.006;9.292;2023-04-26T04:21:23;21.02;;;8.10;;
50932;SDS011;36921;49.006;9.292;2023-04-26T04:23:48;17.85;;;8.07;;
50932;SDS011;36921;49.006;9.292;2023-04-26T04:26:16;16.80;;;8.50;;
50932;SDS011;36921;49.006;9.292;2023-04-26T04:28:43;20.23;;;7.35;;
50932;SDS011;36921;49.006;9.292;2023-04-26T04:31:09;17.85;;;7.90;;
50932;SDS011;36921;49.006;9.292;2023-04-26T04:33:35;15.20;;;8.27;;
50932;SDS011;36921;49.006;9.292;2023-04-26T04:36:00;23.95;;;8.65;;
50932;SDS011;36921;49.006;9.292;2023-04-26T04:38:26;13.95;;;6.95;;
50932;SDS011;36921;49.006;9.292;2023-04-26T04:40:51;15.68;;;7.25;;
50932;SDS011;36921;49.006;9.292;2023-04-26T04:43:16;23.25;;;7.63;;
50932;SDS011;36921;49.006;9.292;2023-04-26T04:45:42;13.60;;;6.65;;
50932;SDS011;36921;49.006;9.292;2023-04-26T04:48:07;16.52;;;7.40;;
50932;SDS011;36921;49.006;9.292;2023-04-26T04:50:33;15.95;;;7.13;;
50932;SDS011;36921;49.006;9.292;2023-04-26T04:52:59;15.95;;;6.78;;
50932;SDS011;36921;49.006;9.292;2023-04-26T04:55:25;14.55;;;6.88;;
50932;SDS011;36921;49.006;9.292;2023-04-26T04:58:12;19.17;;;6.97;;
50932;SDS011;36921;49.006;9.292;2023-04-26T05:00:38;13.32;;;5.97;;
50932;SDS011;36921;49.006;9.292;2023-04-26T05:06:06;15.88;;;6.82;;
50932;SDS011;36921;49.006;9.292;2023-04-26T05:08:32;16.75;;;6.70;;
50932;SDS011;36921;49.006;9.292;2023-04-26T05:10:57;16.48;;;6.43;;
50932;SDS011;36921;49.006;9.292;2023-04-26T05:13:23;17.42;;;6.90;;
50932;SDS011;36921;49.006;9.292;2023-04-26T05:15:48;13.50;;;6.85;;
50932;SDS011;36921;49.006;9.292;2023-04-26T05:18:13;14.05;;;6.25;;
50932;SDS011;36921;49.006;9.292;2023-04-26T05:20:39;12.80;;;5.97;;
50932;SDS011;36921;49.006;9.292;2023-04-26T05:23:05;13.50;;;6.45;;
50932;SDS011;36921;49.006;9.292;2023-04-26T05:25:30;13.75;;;6.47;;
50932;SDS011;36921;49.006;9.292;2023-04-26T05:27:56;15.38;;;5.95;;
50932;SDS011;36921;49.006;9.292;2023-04-26T05:30:21;12.70;;;6.30;;
50932;SDS011;36921;49.006;9.292;2023-04-26T05:32:54;9.10;;;5.68;;
50932;SDS011;36921;49.006;9.292;2023-04-26T05:35:21;11.60;;;6.03;;
50932;SDS011;36921;49.006;9.292;2023-04-26T05:37:46;10.20;;;6.00;;
50932;SDS011;36921;49.006;9.292;2023-04-26T05:40:11;14.50;;;6.95;;
50932;SDS011;36921;49.006;9.292;2023-04-26T05:42:37;12.07;;;5.78;;
50932;SDS011;36921;49.006;9.292;2023-04-26T05:45:03;12.73;;;5.80;;
50932;SDS011;36921;49.006;9.292;2023-04-26T05:47:29;13.20;;;7.15;;
50932;SDS011;36921;49.006;9.292;2023-04-26T05:49:54;15.88;;;6.30;;
50932;SDS011;36921;49.006;9.292;2023-04-26T05:52:19;14.98;;;5.90;;
50932;SDS011;36921;49.006;9.292;2023-04-26T05:54:45;11.52;;;5.93;;
50932;SDS011;36921;49.006;9.292;2023-04-26T05:57:10;14.80;;;6.07;;
50932;SDS011;36921;49.006;9.292;2023-04-26T05:59:35;10.88;;;5.50;;
50932;SDS011;36921;49.006;9.292;2023-04-26T06:02:01;11.13;;;5.75;;
50932;SDS011;36921;49.006;9.292;2023-04-26T06:04:26;22.55;;;5.65;;
50932;SDS011;36921;49.006;9.292;2023-04-26T06:06:52;10.18;;;4.90;;
50932;SDS011;36921;49.006;9.292;2023-04-26T06:09:17;10.52;;;5.10;;
50932;SDS011;36921;49.006;9.292;2023-04-26T06:11:43;10.38;;;4.78;;
50932;SDS011;36921;49.006;9.292;2023-04-26T06:14:08;11.88;;;5.00;;
50932;SDS011;36921;49.006;9.292;2023-04-26T06:16:33;11.73;;;5.65;;
50932;SDS011;36921;49.006;9.292;2023-04-26T06:18:59;14.40;;;5.75;;
50932;SDS011;36921;49.006;9.292;2023-04-26T06:21:24;14.45;;;5.20;;
50932;SDS011;36921;49.006;9.292;2023-04-26T06:23:50;12.48;;;5.20;;
50932;SDS011;36921;49.006;9.292;2023-04-26T06:26:15;9.70;;;5.40;;
50932;SDS011;36921;49.006;9.292;2023-04-26T06:28:40;12.88;;;5.85;;
50932;SDS011;36921;49.006;9.292;2023-04-26T06:31:06;11.02;;;5.95;;
50932;SDS011;36921;49.006;9.292;2023-04-26T06:33:31;15.00;;;6.38;;
50932;SDS011;36921;49.006;9.292;2023-04-26T06:35:56;13.27;;;6.35;;
50932;SDS011;36921;49.006;9.292;2023-04-26T06:38:22;11.82;;;6.57;;
50932;SDS011;36921;49.006;9.292;2023-04-26T06:40:47;11.02;;;6.45;;
50932;SDS011;36921;49.006;9.292;2023-04-26T06:43:12;10.77;;;6.30;;
50932;SDS011;36921;49.006;9.292;2023-04-26T06:45:40;8.38;;;5.65;;
50932;SDS011;36921;49.006;9.292;2023-04-26T06:48:06;13.23;;;5.43;;
50932;SDS011;36921;49.006;9.292;2023-04-26T06:50:36;10.20;;;4.57;;
50932;SDS011;36921;49.006;9.292;2023-04-26T06:53:03;9.57;;;4.60;;
50932;SDS011;36921;49.006;9.292;2023-04-26T06:55:29;13.77;;;5.50;;
50932;SDS011;36921;49.006;9.292;2023-04-26T06:57:54;10.30;;;5.93;;
50932;SDS011;36921;49.006;9.292;2023-04-26T07:00:21;9.85;;;4.47;;
50932;SDS011;36921;49.006;9.292;2023-04-26T07:02:46;7.43;;;4.03;;
50932;SDS011;36921;49.006;9.292;2023-04-26T07:05:12;8.43;;;3.53;;
50932;SDS011;36921;49.006;9.292;2023-04-26T07:07:39;8.27;;;4.40;;
50932;SDS011;36921;49.006;9.292;2023-04-26T07:10:04;8.05;;;3.90;;
50932;SDS011;36921;49.006;9.292;2023-04-26T07:12:30;11.43;;;4.00;;
50932;SDS011;36921;49.006;9.292;2023-04-26T07:14:56;7.97;;;3.53;;
50932;SDS011;36921;49.006;9.292;2023-04-26T07:17:21;6.93;;;3.15;;
50932;SDS011;36921;49.006;9.292;2023-04-26T07:19:46;9.68;;;3.63;;
50932;SDS011;36921;49.006;9.292;2023-04-26T07:22:12;7.45;;;3.60;;
50932;SDS011;36921;49.006;9.292;2023-04-26T07:24:37;6.03;;;3.50;;
50932;SDS011;36921;49.006;9.292;2023-04-26T07:27:02;7.90;;;3.65;;
50932;SDS011;36921;49.006;9.292;2023-04-26T07:29:28;6.85;;;3.42;;
50932;SDS011;36921;49.006;9.292;2023-04-26T07:31:53;6.07;;;3.60;;
50932;SDS011;36921;49.006;9.292;2023-04-26T07:34:18;5.65;;;2.88;;
50932;SDS011;36921;49.006;9.292;2023-04-26T07:36:44;5.28;;;3.10;;
50932;SDS011;36921;49.006;9.292;2023-04-26T07:39:09;9.48;;;3.03;;
50932;SDS011;36921;49.006;9.292;2023-04-26T07:41:35;5.43;;;3.05;;
50932;SDS011;36921;49.006;9.292;2023-04-26T07:44:01;8.68;;;3.20;;
50932;SDS011;36921;49.006;9.292;2023-04-26T07:46:26;4.63;;;2.90;;
50932;SDS011;36921;49.006;9.292;2023-04-26T07:48:53;8.55;;;3.17;;
50932;SDS011;36921;49.006;9.292;2023-04-26T07:51:18;11.10;;;3.60;;
50932;SDS011;36921;49.006;9.292;2023-04-26T07:53:43;7.00;;;3.40;;
50932;SDS011;36921;49.006;9.292;2023-04-26T07:56:08;7.05;;;3.38;;
50932;SDS011;36921;49.006;9.292;2023-04-26T07:58:34;10.68;;;3.58;;
50932;SDS011;36921;49.006;9.292;2023-04-26T08:01:01;10.88;;;3.58;;
50932;SDS011;36921;49.006;9.292;2023-04-26T08:03:26;6.88;;;2.95;;
50932;SDS011;36921;49.006;9.292;2023-04-26T08:05:52;6.90;;;2.58;;
50932;SDS011;36921;49.006;9.292;2023-04-26T08:08:18;6.30;;;3.00;;
50932;SDS011;36921;49.006;9.292;2023-04-26T08:10:43;10.75;;;3.67;;
50932;SDS011;36921;49.006;9.292;2023-04-26T08:13:08;7.95;;;3.05;;
50932;SDS011;36921;49.006;9.292;2023-04-26T08:15:34;4.97;;;3.05;;
50932;SDS011;36921;49.006;9.292;2023-04-26T08:17:59;7.20;;;2.95;;
50932;SDS011;36921;49.006;9.292;2023-04-26T08:20:24;6.47;;;3.10;;
50932;SDS011;36921;49.006;9.292;2023-04-26T08:22:54;6.53;;;2.67;;
50932;SDS011;36921;49.006;9.292;2023-04-26T08:25:22;6.15;;;2.45;;
50932;SDS011;36921;49.006;9.292;2023-04-26T08:27:48;3.67;;;1.70;;
50932;SDS011;36921;49.006;9.292;2023-04-26T08:30:13;7.55;;;2.05;;
50932;SDS011;36921;49.006;9.292;2023-04-26T08:32:39;4.65;;;1.80;;
50932;SDS011;36921;49.006;9.292;2023-04-26T08:35:04;4.15;;;1.80;;
50932;SDS011;36921;49.006;9.292;2023-04-26T08:37:30;8.00;;;2.72;;
50932;SDS011;36921;49.006;9.292;2023-04-26T08:39:55;7.22;;;2.35;;
50932;SDS011;36921;49.006;9.292;2023-04-26T08:42:21;4.90;;;2.00;;
50932;SDS011;36921;49.006;9.292;2023-04-26T08:44:51;5.28;;;2.25;;
50932;SDS011;36921;49.006;9.292;2023-04-26T08:47:17;6.43;;;2.40;;
50932;SDS011;36921;49.006;9.292;2023-04-26T08:49:46;10.07;;;2.42;;
50932;SDS011;36921;49.006;9.292;2023-04-26T08:52:28;6.28;;;2.35;;
50932;SDS011;36921;49.006;9.292;2023-04-26T08:54:58;6.93;;;2.13;;
50932;SDS011;36921;49.006;9.292;2023-04-26T08:57:24;4.80;;;2.40;;
50932;SDS011;36921;49.006;9.292;2023-04-26T08:59:50;8.73;;;2.90;;
50932;SDS011;36921;49.006;9.292;2023-04-26T09:02:18;7.68;;;3.03;;
50932;SDS011;36921;49.006;9.292;2023-04-26T09:04:47;7.13;;;2.90;;
50932;SDS011;36921;49.006;9.292;2023-04-26T09:07:15;7.07;;;2.60;;
50932;SDS011;36921;49.006;9.292;2023-04-26T09:09:46;8.30;;;2.95;;
50932;SDS011;36921;49.006;9.292;2023-04-26T09:12:14;6.32;;;3.15;;
50932;SDS011;36921;49.006;9.292;2023-04-26T09:14:43;8.38;;;3.17;;
50932;SDS011;36921;49.006;9.292;2023-04-26T09:19:53;7.97;;;3.50;;
50932;SDS011;36921;49.006;9.292;2023-04-26T09:22:29;9.60;;;2.90;;
50932;SDS011;36921;49.006;9.292;2023-04-26T09:24:59;8.80;;;4.10;;
50932;SDS011;36921;49.006;9.292;2023-04-26T09:27:38;10.13;;;3.58;;
50932;SDS011;36921;49.006;9.292;2023-04-26T09:30:06;10.57;;;3.47;;
50932;SDS011;36921;49.006;9.292;2023-04-26T09:35:29;7.50;;;2.95;;
50932;SDS011;36921;49.006;9.292;2023-04-26T09:37:56;6.18;;;2.65;;
50932;SDS011;36921;49.006;9.292;2023-04-26T09:40:23;8.77;;;2.72;;
50932;SDS011;36921;49.006;9.292;2023-04-26T09:42:56;9.25;;;2.50;;
50932;SDS011;36921;49.006;9.292;2023-04-26T09:45:23;5.15;;;2.70;;
50932;SDS011;36921;49.006;9.292;2023-04-26T09:47:49;9.07;;;2.70;;
50932;SDS011;36921;49.006;9.292;2023-04-26T09:50:25;5.15;;;2.83;;
50932;SDS011;36921;49.006;9.292;2023-04-26T09:52:54;5.18;;;2.60;;
50932;SDS011;36921;49.006;9.292;2023-04-26T09:55:26;6.90;;;2.50;;
50932;SDS011;36921;49.006;9.292;2023-04-26T09:57:53;8.88;;;2.60;;
50932;SDS011;36921;49.006;9.292;2023-04-26T10:00:19;7.15;;;2.67;;
50932;SDS011;36921;49.006;9.292;2023-04-26T10:02:45;6.10;;;3.00;;
50932;SDS011;36921;49.006;9.292;2023-04-26T10:05:11;9.18;;;2.80;;
50932;SDS011;36921;49.006;9.292;2023-04-26T10:07:36;5.53;;;2.40;;
50932;SDS011;36921;49.006;9.292;2023-04-26T10:10:03;7.47;;;2.40;;
50932;SDS011;36921;49.006;9.292;2023-04-26T10:12:29;6.05;;;2.13;;
50932;SDS011;36921;49.006;9.292;2023-04-26T10:14:54;5.28;;;2.20;;
50932;SDS011;36921;49.006;9.292;2023-04-26T10:17:21;6.97;;;2.10;;
50932;SDS011;36921;49.006;9.292;2023-04-26T10:19:47;7.68;;;2.47;;
50932;SDS011;36921;49.006;9.292;2023-04-26T10:22:19;4.97;;;2.20;;
50932;SDS011;36921;49.006;9.292;2023-04-26T10:24:47;5.85;;;1.95;;
50932;SDS011;36921;49.006;9.292;2023-04-26T10:27:13;6.53;;;1.92;;
50932;SDS011;36921;49.006;9.292;2023-04-26T10:32:20;5.68;;;1.98;;
50932;SDS011;36921;49.006;9.292;2023-04-26T10:35:20;6.05;;;2.15;;
50932;SDS011;36921;49.006;9.292;2023-04-26T10:42:50;5.93;;;2.50;;
50932;SDS011;36921;49.006;9.292;2023-04-26T10:45:36;5.70;;;2.63;;
50932;SDS011;36921;49.006;9.292;2023-04-26T10:48:15;9.52;;;2.60;;
50932;SDS011;36921;49.006;9.292;2023-04-26T10:53:25;8.50;;;2.53;;
50932;SDS011;36921;49.006;9.292;2023-04-26T10:55:56;6.10;;;2.55;;
50932;SDS011;36921;49.006;9.292;2023-04-26T10:58:25;4.75;;;2.08;;
50932;SDS011;36921;49.006;9.292;2023-04-26T11:03:29;4.32;;;2.10;;
50932;SDS011;36921;49.006;9.292;2023-04-26T11:05:55;4.03;;;2.08;;
50932;SDS011;36921;49.006;9.292;2023-04-26T11:08:23;6.68;;;2.35;;
50932;SDS011;36921;49.006;9.292;2023-04-26T11:10:57;6.50;;;2.28;;
50932;SDS011;36921;49.006;9.292;2023-04-26T11:13:38;7.10;;;2.47;;
50932;SDS011;36921;49.006;9.292;2023-04-26T11:16:05;6.95;;;2.28;;
50932;SDS011;36921;49.006;9.292;2023-04-26T11:18:32;6.88;;;3.10;;
50932;SDS011;36921;49.006;9.292;2023-04-26T11:20:59;7.47;;;2.60;;
50932;SDS011;36921;49.006;9.292;2023-04-26T11:23:26;6.15;;;3.22;;
50932;SDS011;36921;49.006;9.292;2023-04-26T11:25:52;6.95;;;2.55;;
50932;SDS011;36921;49.006;9.292;2023-04-26T11:28:21;6.53;;;2.20;;
50932;SDS011;36921;49.006;9.292;2023-04-26T11:30:50;4.82;;;2.25;;
50932;SDS011;36921;49.006;9.292;2023-04-26T11:33:17;6.10;;;2.30;;
50932;SDS011;36921;49.006;9.292;2023-04-26T11:35:44;7.55;;;2.10;;
50932;SDS011;36921;49.006;9.292;2023-04-26T11:38:10;4.20;;;2.33;;
50932;SDS011;36921;49.006;9.292;2023-04-26T11:40:36;5.35;;;2.10;;
50932;SDS011;36921;49.006;9.292;2023-04-26T11:43:05;4.38;;;2.08;;
50932;SDS011;36921;49.006;9.292;2023-04-26T11:47:57;4.40;;;1.90;;
50932;SDS011;36921;49.006;9.292;2023-04-26T11:50:25;7.65;;;2.40;;
50932;SDS011;36921;49.006;9.292;2023-04-26T11:52:55;8.25;;;2.30;;
50932;SDS011;36921;49.006;9.292;2023-04-26T11:55:22;6.97;;;2.58;;
50932;SDS011;36921;49.006;9.292;2023-04-26T11:57:49;3.33;;;1.65;;
50932;SDS011;36921;49.006;9.292;2023-04-26T12:00:15;10.20;;;1.90;;
50932;SDS011;36921;49.006;9.292;2023-04-26T12:02:44;3.75;;;1.40;;
50932;SDS011;36921;49.006;9.292;2023-04-26T12:05:10;4.45;;;1.75;;
50932;SDS011;36921;49.006;9.292;2023-04-26T12:07:48;3.78;;;1.65;;
50932;SDS011;36921;49.006;9.292;2023-04-26T12:10:16;8.63;;;1.90;;
50932;SDS011;36921;49.006;9.292;2023-04-26T12:12:46;4.90;;;2.03;;
50932;SDS011;36921;49.006;9.292;2023-04-26T12:15:12;4.13;;;2.00;;
50932;SDS011;36921;49.006;9.292;2023-04-26T12:17:38;4.00;;;2.72;;
50932;SDS011;36921;49.006;9.292;2023-04-26T12:20:09;4.47;;;1.87;;
50932;SDS011;36921;49.006;9.292;2023-04-26T12:22:35;5.53;;;2.28;;
50932;SDS011;36921;49.006;9.292;2023-04-26T12:25:07;4.60;;;1.95;;
50932;SDS011;36921;49.006;9.292;2023-04-26T12:27:34;4.53;;;2.15;;
50932;SDS011;36921;49.006;9.292;2023-04-26T12:29:59;3.95;;;2.33;;
50932;SDS011;36921;49.006;9.292;2023-04-26T12:32:25;4.07;;;1.90;;
50932;SDS011;36921;49.006;9.292;2023-04-26T12:34:50;5.65;;;1.98;;
50932;SDS011;36921;49.006;9.292;2023-04-26T12:37:15;6.82;;;2.35;;
50932;SDS011;36921;49.006;9.292;2023-04-26T12:39:40;5.60;;;2.00;;
50932;SDS011;36921;49.006;9.292;2023-04-26T12:42:06;5.20;;;2.17;;
50932;SDS011;36921;49.006;9.292;2023-04-26T12:44:31;10.95;;;2.40;;
50932;SDS011;36921;49.006;9.292;2023-04-26T12:46:56;6.07;;;2.40;;
50932;SDS011;36921;49.006;9.292;2023-04-26T12:49:22;4.78;;;2.05;;
50932;SDS011;36921;49.006;9.292;2023-04-26T12:51:47;5.05;;;1.73;;
50932;SDS011;36921;49.006;9.292;2023-04-26T12:54:12;3.85;;;1.80;;
50932;SDS011;36921;49.006;9.292;2023-04-26T12:56:38;3.17;;;1.92;;
50932;SDS011;36921;49.006;9.292;2023-04-26T12:59:07;4.88;;;2.28;;
50932;SDS011;36921;49.006;9.292;2023-04-26T13:01:33;4.10;;;2.25;;
50932;SDS011;36921;49.006;9.292;2023-04-26T13:03:58;6.75;;;2.45;;
50932;SDS011;36921;49.006;9.292;2023-04-26T13:06:24;6.20;;;2.13;;
50932;SDS011;36921;49.006;9.292;2023-04-26T13:08:51;4.82;;;2.00;;
50932;SDS011;36921;49.006;9.292;2023-04-26T13:11:17;4.53;;;1.85;;
50932;SDS011;36921;49.006;9.292;2023-04-26T13:13:42;5.13;;;2.05;;
50932;SDS011;36921;49.006;9.292;2023-04-26T13:16:07;3.38;;;1.80;;
50932;SDS011;36921;49.006;9.292;2023-04-26T13:18:33;4.43;;;1.65;;
50932;SDS011;36921;49.006;9.292;2023-04-26T13:20:58;3.65;;;1.90;;
50932;SDS011;36921;49.006;9.292;2023-04-26T13:23:23;6.15;;;2.22;;
50932;SDS011;36921;49.006;9.292;2023-04-26T13:25:48;6.93;;;2.65;;
50932;SDS011;36921;49.006;9.292;2023-04-26T13:28:14;5.22;;;1.95;;
50932;SDS011;36921;49.006;9.292;2023-04-26T13:30:39;5.82;;;2.30;;
50932;SDS011;36921;49.006;9.292;2023-04-26T13:33:05;5.03;;;2.30;;
50932;SDS011;36921;49.006;9.292;2023-04-26T13:35:30;4.97;;;1.90;;
50932;SDS011;36921;49.006;9.292;2023-04-26T13:37:56;5.15;;;1.90;;
50932;SDS011;36921;49.006;9.292;2023-04-26T13:40:21;5.10;;;1.98;;
50932;SDS011;36921;49.006;9.292;2023-04-26T13:42:46;7.10;;;1.88;;
50932;SDS011;36921;49.006;9.292;2023-04-26T13:45:12;4.53;;;1.90;;
50932;SDS011;36921;49.006;9.292;2023-04-26T13:47:37;6.95;;;1.90;;
50932;SDS011;36921;49.006;9.292;2023-04-26T13:50:03;4.40;;;1.60;;
50932;SDS011;36921;49.006;9.292;2023-04-26T13:52:28;5.43;;;2.15;;
50932;SDS011;36921;49.006;9.292;2023-04-26T13:54:54;4.05;;;1.90;;
50932;SDS011;36921;49.006;9.292;2023-04-26T13:57:19;4.20;;;1.65;;
50932;SDS011;36921;49.006;9.292;2023-04-26T13:59:45;4.53;;;2.00;;
50932;SDS011;36921;49.006;9.292;2023-04-26T14:02:10;4.25;;;2.22;;
50932;SDS011;36921;49.006;9.292;2023-04-26T14:04:39;4.63;;;2.13;;
50932;SDS011;36921;49.006;9.292;2023-04-26T14:07:05;5.00;;;2.17;;
50932;SDS011;36921;49.006;9.292;2023-04-26T14:09:31;4.60;;;2.20;;
50932;SDS011;36921;49.006;9.292;2023-04-26T14:11:56;5.40;;;1.90;;
50932;SDS011;36921;49.006;9.292;2023-04-26T14:14:22;4.18;;;1.90;;
50932;SDS011;36921;49.006;9.292;2023-04-26T14:16:47;5.53;;;2.00;;
50932;SDS011;36921;49.006;9.292;2023-04-26T14:19:12;4.45;;;1.90;;
50932;SDS011;36921;49.006;9.292;2023-04-26T14:21:39;5.65;;;2.00;;
50932;SDS011;36921;49.006;9.292;2023-04-26T14:24:05;5.10;;;1.98;;
50932;SDS011;36921;49.006;9.292;2023-04-26T14:26:31;4.32;;;1.83;;
50932;SDS011;36921;49.006;9.292;2023-04-26T14:28:57;3.25;;;1.77;;
50932;SDS011;36921;49.006;9.292;2023-04-26T14:31:23;5.20;;;2.25;;
50932;SDS011;36921;49.006;9.292;2023-04-26T14:33:50;5.32;;;2.10;;
50932;SDS011;36921;49.006;9.292;2023-04-26T14:36:15;5.32;;;2.33;;
50932;SDS011;36921;49.006;9.292;2023-04-26T14:38:41;7.95;;;2.10;;
50932;SDS011;36921;49.006;9.292;2023-04-26T14:41:07;6.28;;;1.95;;
50932;SDS011;36921;49.006;9.292;2023-04-26T14:43:33;6.35;;;2.20;;
50932;SDS011;36921;49.006;9.292;2023-04-26T14:45:58;5.13;;;2.30;;
50932;SDS011;36921;49.006;9.292;2023-04-26T14:48:24;3.53;;;1.65;;
50932;SDS011;36921;49.006;9.292;2023-04-26T14:50:56;7.57;;;1.73;;
50932;SDS011;36921;49.006;9.292;2023-04-26T14:53:22;6.85;;;1.40;;
50932;SDS011;36921;49.006;9.292;2023-04-26T14:55:52;3.70;;;1.67;;
50932;SDS011;36921;49.006;9.292;2023-04-26T14:58:21;2.83;;;1.67;;
50932;SDS011;36921;49.006;9.292;2023-04-26T15:00:46;3.35;;;1.60;;
50932;SDS011;36921;49.006;9.292;2023-04-26T15:03:12;5.78;;;2.00;;
50932;SDS011;36921;49.006;9.292;2023-04-26T15:05:37;4.97;;;1.70;;